Forside
METAR-TAF:

METAR-TAF

Lufthavne :

Toledo Suburban Airport

Lambertville, Michigan, USA

Breddekreds: 41-44-09N, længdekreds: 083-39-19W, højde: 204 m

Aktuelle vejr

Denne rapport blev lavet for 14 minutter siden, kl. 16:55 UTC
Vind 8 kt fra sydsydvest
Temperatur 9°C
Fugtighed 37%
Tryk 1017 hPa
Sigt: 16.1 km
skyfri

METAR: KDUH 231655Z AUTO 21008KT 10SM CLR 09/M05 A3002 RMK AO2 T00871053

Tid: 12:09 (17:09 UTC)


TAF: fraværende

Vejrobservationer og prognoser fra mere end 4000 lufthavne (METAR og TAF).

De gule og røde prikker repræsenterer de meteorologiske stationer.

Flyt musen over at se navnet på stationen.

Så klik over at se vejr observationer og prognoser.

At skifte det kort: Klik på de grønne knapper med et sort kors for at zoome ind; på den grønne knap med en bindestreg for at zoome ud; eller på de grønne pile for tilstødende kort.


METAR-TAF: